Time;durP1;ratioP1;P1;durP2;ratioP2;P2;SDS_P1;SDS_P2;PMS_P1;PMS_P2;Temp;Humidity;BMP_temperature;BMP_pressure;BME280_temperature;BME280_humidity;BME280_pressure;Samples;Min_cycle;Max_cycle;Signal;HPM_P1;HPM_P2
2023/07/23 00:00:54;;;;;;;7.75;3.60;;;26.60;96.70;;;;;;5107194;27;20052;-85
2023/07/23 00:03:22;;;;;;;6.65;3.67;;;26.50;96.70;;;;;;5089074;28;20523;-85
2023/07/23 00:05:51;;;;;;;7.32;3.20;;;26.60;96.70;;;;;;5093137;28;20044;-84
2023/07/23 00:08:18;;;;;;;7.97;4.10;;;26.60;96.70;;;;;;5096446;28;20036;-83
2023/07/23 00:10:46;;;;;;;7.07;4.07;;;26.50;96.70;;;;;;5088696;28;20035;-85
2023/07/23 00:13:14;;;;;;;8.75;4.10;;;26.40;96.70;;;;;;5105780;28;20051;-85
2023/07/23 00:15:42;;;;;;;6.55;3.70;;;26.50;96.70;;;;;;5087365;28;20056;-85
2023/07/23 00:18:12;;;;;;;7.00;3.78;;;26.60;96.70;;;;;;5085451;28;20040;-85
2023/07/23 00:20:40;;;;;;;8.95;4.03;;;26.70;96.70;;;;;;5089911;28;20123;-85
2023/07/23 00:23:08;;;;;;;8.50;3.80;;;26.70;96.70;;;;;;5102728;27;20133;-85
2023/07/23 00:25:36;;;;;;;10.15;4.25;;;26.70;96.70;;;;;;5094548;28;20048;-85
2023/07/23 00:28:04;;;;;;;8.45;3.55;;;26.60;96.70;;;;;;5105658;28;20097;-85
2023/07/23 00:30:32;;;;;;;8.23;4.10;;;26.50;96.70;;;;;;5096525;28;20047;-85
2023/07/23 00:33:00;;;;;;;7.47;4.40;;;26.40;96.70;;;;;;5094484;28;20044;-85
2023/07/23 00:35:31;;;;;;;8.93;3.92;;;26.30;96.70;;;;;;5094343;28;20043;-85
2023/07/23 00:37:59;;;;;;;7.60;4.00;;;26.20;96.70;;;;;;5105243;27;20055;-86
2023/07/23 00:40:27;;;;;;;8.35;4.38;;;26.00;96.70;;;;;;5089820;28;20124;-85
2023/07/23 00:42:55;;;;;;;6.72;4.32;;;25.90;96.70;;;;;;5096278;28;20055;-85
2023/07/23 00:45:24;;;;;;;9.98;4.50;;;25.80;96.70;;;;;;5087926;28;20127;-85
2023/07/23 00:47:52;;;;;;;5.82;4.18;;;25.80;96.70;;;;;;5086611;28;20048;-86
2023/07/23 00:50:20;;;;;;;9.05;4.13;;;25.90;96.70;;;;;;5104333;28;20061;-86
2023/07/23 00:52:50;;;;;;;12.38;4.43;;;25.90;96.70;;;;;;5116430;27;20056;-85
2023/07/23 00:55:18;;;;;;;8.57;3.90;;;26.00;96.70;;;;;;5104250;27;20146;-85
2023/07/23 00:57:46;;;;;;;10.70;4.43;;;26.00;96.70;;;;;;5087938;28;20102;-84
2023/07/23 01:00:14;;;;;;;10.98;4.57;;;25.90;96.70;;;;;;5082734;28;20040;-84
2023/07/23 01:02:43;;;;;;;6.55;3.90;;;25.80;96.70;;;;;;5109839;27;20055;-82
2023/07/23 01:05:11;;;;;;;6.47;4.05;;;25.70;96.70;;;;;;5099202;28;20039;-84
2023/07/23 01:07:41;;;;;;;9.07;4.70;;;25.70;96.70;;;;;;5088268;28;20490;-85
2023/07/23 01:10:11;;;;;;;7.90;4.35;;;25.70;96.70;;;;;;5093269;28;20044;-84
2023/07/23 01:12:40;;;;;;;10.18;4.30;;;25.60;96.70;;;;;;5112517;27;20101;-84
2023/07/23 01:15:08;;;;;;;8.63;4.28;;;25.70;96.70;;;;;;5103457;28;20044;-86
2023/07/23 01:17:37;;;;;;;10.07;4.75;;;25.80;96.70;;;;;;5106408;27;20044;-84
2023/07/23 01:20:07;;;;;;;6.88;4.38;;;25.80;96.70;;;;;;5088422;28;20032;-84
2023/07/23 01:22:37;;;;;;;8.88;4.72;;;25.90;96.70;;;;;;5103953;28;20644;-84
2023/07/23 01:25:05;;;;;;;7.82;3.90;;;25.80;96.70;;;;;;5103946;27;20873;-85
2023/07/23 01:27:34;;;;;;;5.85;4.20;;;25.60;96.70;;;;;;5086536;28;20036;-85
2023/07/23 01:30:03;;;;;;;8.68;4.25;;;25.60;96.70;;;;;;5095512;28;20044;-84
2023/07/23 01:32:31;;;;;;;8.52;3.97;;;25.70;96.70;;;;;;5114618;27;20101;-85
2023/07/23 01:35:06;;;;;;;6.57;3.47;;;25.70;96.70;;;;;;5086662;28;20044;-85
2023/07/23 01:37:34;;;;;;;7.88;4.03;;;25.70;96.70;;;;;;5103797;27;20056;-85
2023/07/23 01:40:04;;;;;;;6.35;3.95;;;25.70;96.70;;;;;;5104547;27;20405;-85
2023/07/23 01:42:32;;;;;;;4.88;3.90;;;25.60;96.70;;;;;;5086600;28;20561;-85
2023/07/23 01:45:01;;;;;;;6.32;3.47;;;25.70;96.70;;;;;;5085557;28;20083;-85
2023/07/23 01:47:29;;;;;;;9.02;3.80;;;25.70;96.70;;;;;;5085868;28;20101;-84
2023/07/23 01:49:57;;;;;;;7.20;3.97;;;25.70;96.70;;;;;;5087534;28;20047;-84
2023/07/23 01:52:26;;;;;;;6.97;3.92;;;25.70;96.70;;;;;;5085962;28;20050;-84
2023/07/23 01:54:54;;;;;;;6.03;3.38;;;25.70;96.70;;;;;;5078928;28;20055;-84
2023/07/23 01:57:23;;;;;;;8.25;3.83;;;25.60;96.70;;;;;;5074199;28;20093;-83
2023/07/23 01:59:51;;;;;;;5.65;3.63;;;25.50;96.70;;;;;;5097304;28;20055;-84
2023/07/23 02:02:19;;;;;;;6.30;3.97;;;25.40;96.70;;;;;;5101287;27;20071;-84
2023/07/23 02:04:47;;;;;;;6.97;3.85;;;25.40;96.70;;;;;;5088817;28;20036;-83
2023/07/23 02:07:15;;;;;;;5.93;3.85;;;25.40;96.70;;;;;;5090035;28;20476;-84
2023/07/23 02:09:43;;;;;;;8.25;3.28;;;25.20;96.70;;;;;;5103953;28;20040;-84
2023/07/23 02:12:10;;;;;;;5.45;3.25;;;25.00;96.70;;;;;;5107844;28;20040;-84
2023/07/23 02:14:40;;;;;;;6.68;3.70;;;25.00;96.70;;;;;;5089252;28;20056;-85
2023/07/23 02:17:08;;;;;;;8.38;3.78;;;25.00;96.70;;;;;;5085202;28;20067;-83
2023/07/23 02:19:41;;;;;;;8.32;3.53;;;24.90;96.70;;;;;;5085650;28;20047;-82
2023/07/23 02:22:09;;;;;;;6.43;3.92;;;24.90;96.70;;;;;;5085962;28;20430;-84
2023/07/23 02:24:37;;;;;;;6.70;3.47;;;24.80;96.70;;;;;;5102926;28;20120;-84
2023/07/23 02:27:05;;;;;;;6.32;3.80;;;24.70;96.70;;;;;;5103341;28;20101;-83
2023/07/23 02:29:34;;;;;;;4.97;3.88;;;24.60;96.70;;;;;;5088092;28;20047;-83
2023/07/23 02:32:05;;;;;;;6.32;3.58;;;24.50;96.70;;;;;;5085713;28;20117;-83
2023/07/23 02:34:33;;;;;;;7.68;3.67;;;24.60;96.70;;;;;;5103366;28;20100;-84
2023/07/23 02:37:01;;;;;;;6.55;4.05;;;24.70;96.70;;;;;;5087089;28;20567;-85
2023/07/23 02:39:30;;;;;;;7.25;3.95;;;24.70;96.70;;;;;;5106007;28;20040;-84
2023/07/23 02:41:58;;;;;;;6.93;3.70;;;24.70;96.70;;;;;;5102394;28;20130;-85
2023/07/23 02:44:26;;;;;;;6.45;4.22;;;24.70;96.70;;;;;;5102944;28;20043;-85
2023/07/23 02:46:57;;;;;;;6.68;4.13;;;24.60;96.70;;;;;;5085816;28;20044;-84
2023/07/23 02:49:27;;;;;;;7.32;4.30;;;24.50;96.70;;;;;;5084626;28;20054;-84
2023/07/23 02:51:55;;;;;;;4.75;3.63;;;24.50;96.70;;;;;;5102493;28;20497;-84
2023/07/23 02:54:23;;;;;;;7.22;4.35;;;24.70;96.70;;;;;;5090681;28;20070;-84
2023/07/23 02:56:51;;;;;;;8.07;4.32;;;24.60;96.70;;;;;;5104542;28;20759;-84
2023/07/23 02:59:19;;;;;;;6.93;4.40;;;24.70;96.70;;;;;;5084064;28;20097;-85
2023/07/23 03:01:47;;;;;;;10.77;4.43;;;24.70;96.70;;;;;;5086969;28;20040;-84
2023/07/23 03:04:15;;;;;;;5.50;3.90;;;24.70;96.70;;;;;;5086578;28;20044;-84
2023/07/23 03:06:44;;;;;;;7.55;4.53;;;24.70;96.70;;;;;;5102683;28;20543;-84
2023/07/23 03:09:12;;;;;;;10.63;4.53;;;24.80;96.70;;;;;;5090326;28;20052;-84
2023/07/23 03:11:43;;;;;;;6.47;3.92;;;24.70;96.70;;;;;;5103185;27;20544;-85
2023/07/23 03:14:11;;;;;;;9.30;4.18;;;24.60;96.70;;;;;;5089844;28;20042;-85
2023/07/23 03:16:39;;;;;;;7.47;4.63;;;24.60;96.70;;;;;;5106294;27;20223;-85
2023/07/23 03:19:07;;;;;;;6.80;4.32;;;24.60;96.70;;;;;;5089950;28;20044;-85
2023/07/23 03:21:35;;;;;;;6.25;3.75;;;24.60;96.70;;;;;;5115432;27;20060;-84
2023/07/23 03:24:06;;;;;;;6.20;4.07;;;24.60;96.70;;;;;;5098631;28;20043;-83
2023/07/23 03:26:34;;;;;;;8.23;3.97;;;24.60;96.70;;;;;;5106590;28;20051;-85
2023/07/23 03:29:02;;;;;;;8.52;4.10;;;24.50;96.70;;;;;;5093433;28;20028;-85
2023/07/23 03:31:30;;;;;;;8.23;4.10;;;24.50;96.70;;;;;;5089065;28;20477;-85
2023/07/23 03:33:58;;;;;;;5.75;3.55;;;24.50;96.70;;;;;;5089124;28;20410;-84
2023/07/23 03:36:27;;;;;;;6.93;3.83;;;24.50;96.70;;;;;;5105699;27;20044;-84
2023/07/23 03:38:55;;;;;;;6.32;3.55;;;24.50;96.70;;;;;;5090035;28;20054;-84
2023/07/23 03:41:24;;;;;;;7.00;3.80;;;24.60;96.70;;;;;;5095883;28;20067;-85
2023/07/23 03:43:53;;;;;;;9.82;3.63;;;24.60;96.70;;;;;;5114958;27;20036;-84
2023/07/23 03:46:21;;;;;;;10.32;4.47;;;24.50;96.70;;;;;;5095554;28;20596;-85
2023/07/23 03:48:48;;;;;;;6.55;3.70;;;24.50;96.70;;;;;;5105968;28;20167;-85
2023/07/23 03:51:19;;;;;;;7.47;4.00;;;24.60;96.70;;;;;;5090628;28;20032;-85
2023/07/23 03:53:47;;;;;;;6.90;4.05;;;24.50;96.70;;;;;;5094436;28;20559;-85
2023/07/23 03:56:15;;;;;;;6.70;4.10;;;24.40;96.70;;;;;;5107310;27;20047;-84
2023/07/23 03:58:44;;;;;;;6.53;4.18;;;24.30;96.70;;;;;;5089526;28;20075;-85
2023/07/23 04:01:12;;;;;;;5.95;4.00;;;24.30;96.70;;;;;;5104588;27;20133;-85
2023/07/23 04:03:40;;;;;;;6.43;3.97;;;24.30;96.70;;;;;;5091272;28;20051;-85
2023/07/23 04:06:08;;;;;;;5.50;3.47;;;24.40;96.70;;;;;;5107401;27;20036;-85
2023/07/23 04:08:36;;;;;;;7.45;3.72;;;24.40;96.70;;;;;;5099380;27;20040;-84
2023/07/23 04:11:04;;;;;;;6.43;3.92;;;24.40;96.70;;;;;;5083432;28;20044;-85
2023/07/23 04:13:32;;;;;;;4.93;3.90;;;24.20;96.70;;;;;;5087646;28;20079;-84
2023/07/23 04:16:08;;;;;;;8.15;4.05;;;24.30;96.70;;;;;;5098024;27;20036;-84
2023/07/23 04:18:46;;;;;;;8.02;3.60;;;24.40;96.70;;;;;;5089190;28;20044;-85
2023/07/23 04:21:14;;;;;;;8.77;3.88;;;24.50;96.70;;;;;;5105066;27;20040;-84
2023/07/23 04:23:46;;;;;;;7.05;3.70;;;24.50;96.70;;;;;;5087844;28;20513;-84
2023/07/23 04:26:15;;;;;;;6.90;3.63;;;24.30;96.70;;;;;;5104574;27;20067;-85
2023/07/23 04:28:43;;;;;;;7.40;3.55;;;24.10;96.70;;;;;;5087926;28;20044;-85
2023/07/23 04:31:12;;;;;;;7.13;3.80;;;24.10;96.70;;;;;;5088344;28;20547;-84
2023/07/23 04:33:40;;;;;;;6.10;3.83;;;24.00;96.70;;;;;;5088492;28;20048;-85
2023/07/23 04:36:08;;;;;;;4.75;3.67;;;23.90;96.70;;;;;;5088522;28;20501;-84
2023/07/23 04:38:36;;;;;;;6.43;3.85;;;24.00;96.70;;;;;;5105678;27;20043;-85
2023/07/23 04:41:05;;;;;;;6.30;3.70;;;24.20;96.70;;;;;;5087820;28;20040;-84
2023/07/23 04:43:33;;;;;;;6.80;4.07;;;24.20;96.70;;;;;;5088409;28;20062;-84
2023/07/23 04:46:01;;;;;;;7.68;4.88;;;24.00;96.70;;;;;;5108016;27;20165;-85
2023/07/23 04:48:31;;;;;;;9.93;4.38;;;23.90;96.70;;;;;;5088741;28;20105;-84
2023/07/23 04:51:00;;;;;;;8.10;4.82;;;23.90;96.70;;;;;;5089356;28;20386;-84
2023/07/23 04:53:28;;;;;;;8.15;4.72;;;23.90;96.70;;;;;;5104186;27;20063;-84
2023/07/23 04:55:56;;;;;;;7.85;4.63;;;24.00;96.70;;;;;;5089143;28;20504;-83
2023/07/23 04:58:25;;;;;;;8.73;4.53;;;24.10;96.70;;;;;;5085907;28;20032;-84
2023/07/23 05:00:53;;;;;;;9.88;4.65;;;24.20;96.70;;;;;;5088397;28;20056;-83
2023/07/23 05:03:21;;;;;;;8.18;4.93;;;24.20;96.70;;;;;;5088404;28;20099;-84
2023/07/23 05:05:52;;;;;;;10.52;5.05;;;24.20;96.70;;;;;;5089410;28;20519;-84
2023/07/23 05:08:21;;;;;;;10.52;4.72;;;24.30;96.70;;;;;;5104568;27;20054;-84
2023/07/23 05:10:49;;;;;;;9.40;5.07;;;24.30;96.70;;;;;;5093277;28;20058;-84
2023/07/23 05:13:17;;;;;;;8.05;4.78;;;24.50;96.70;;;;;;5091758;28;20545;-84
2023/07/23 05:15:45;;;;;;;6.72;4.28;;;24.50;96.70;;;;;;5086970;28;20634;-85
2023/07/23 05:18:13;;;;;;;9.27;5.22;;;24.50;96.70;;;;;;5088076;28;20047;-84
2023/07/23 05:20:41;;;;;;;7.55;5.63;;;24.60;96.70;;;;;;5100871;27;20051;-85
2023/07/23 05:23:10;;;;;;;8.07;4.60;;;24.60;96.70;;;;;;5098246;28;20036;-84
2023/07/23 05:25:38;;;;;;;11.80;5.15;;;24.50;96.70;;;;;;5084017;28;20052;-85
2023/07/23 05:28:06;;;;;;;10.13;4.95;;;24.40;96.70;;;;;;5089575;28;20040;-85
2023/07/23 05:30:34;;;;;;;8.20;4.60;;;24.50;96.70;;;;;;5089234;28;20055;-85
2023/07/23 05:33:02;;;;;;;7.60;4.35;;;24.50;96.70;;;;;;5091299;28;21129;-85
2023/07/23 05:35:35;;;;;;;9.55;4.97;;;24.60;96.70;;;;;;5103194;28;20047;-85
2023/07/23 05:38:03;;;;;;;8.90;4.93;;;24.60;96.70;;;;;;5103628;28;20054;-84
2023/07/23 05:40:36;;;;;;;11.85;5.60;;;24.60;96.70;;;;;;5103890;27;20052;-83
2023/07/23 05:43:12;;;;;;;7.43;4.45;;;24.70;96.70;;;;;;5111402;27;20051;-84
2023/07/23 05:45:40;;;;;;;8.15;4.93;;;24.90;96.70;;;;;;5085977;28;20414;-86
2023/07/23 05:48:08;;;;;;;9.95;4.95;;;24.90;96.70;;;;;;5082237;28;20091;-84
2023/07/23 05:50:37;;;;;;;10.65;5.15;;;25.00;96.70;;;;;;5087171;28;20071;-83
2023/07/23 05:53:05;;;;;;;6.85;4.78;;;25.00;96.70;;;;;;5102426;28;20517;-81
2023/07/23 05:55:34;;;;;;;8.48;4.95;;;25.20;96.70;;;;;;5091981;28;20109;-81
2023/07/23 05:58:02;;;;;;;7.43;4.72;;;25.20;96.70;;;;;;5085673;28;20051;-81
2023/07/23 06:00:30;;;;;;;8.20;4.68;;;25.10;96.70;;;;;;5086630;28;20139;-83
2023/07/23 06:02:58;;;;;;;10.00;4.93;;;25.10;96.70;;;;;;5102471;27;20068;-85
2023/07/23 06:05:27;;;;;;;9.15;5.60;;;25.20;96.70;;;;;;5086279;28;20138;-82
2023/07/23 06:07:55;;;;;;;7.82;4.88;;;25.30;96.70;;;;;;5102693;28;20087;-81
2023/07/23 06:10:23;;;;;;;6.90;4.75;;;25.30;96.70;;;;;;5097309;28;20067;-85
2023/07/23 06:12:53;;;;;;;7.15;4.28;;;25.30;96.70;;;;;;5107279;28;20055;-82
2023/07/23 06:15:21;;;;;;;8.70;4.35;;;25.40;96.70;;;;;;5081899;28;20070;-81
2023/07/23 06:17:49;;;;;;;7.25;5.10;;;25.30;96.70;;;;;;5104605;28;20139;-82
2023/07/23 06:20:18;;;;;;;7.10;4.47;;;25.30;96.70;;;;;;5095208;28;20039;-83
2023/07/23 06:22:46;;;;;;;6.75;4.43;;;25.40;96.70;;;;;;5096347;28;20049;-82
2023/07/23 06:25:14;;;;;;;6.32;4.68;;;25.40;96.70;;;;;;5086158;28;20044;-81
2023/07/23 06:27:42;;;;;;;6.45;4.78;;;25.50;96.70;;;;;;5105632;28;20047;-82
2023/07/23 06:30:12;;;;;;;7.63;4.70;;;25.50;96.70;;;;;;5087471;28;20044;-78
2023/07/23 06:32:41;;;;;;;8.80;4.45;;;25.60;96.70;;;;;;5107891;28;20039;-88
2023/07/23 06:35:10;;;;;;;7.95;5.00;;;25.60;96.70;;;;;;5087011;28;20066;-85
2023/07/23 06:37:40;;;;;;;6.45;4.50;;;25.60;96.70;;;;;;5097001;28;20603;-87
2023/07/23 06:40:09;;;;;;;7.65;4.30;;;25.70;96.70;;;;;;5095135;28;20058;-88
2023/07/23 06:42:37;;;;;;;8.07;4.53;;;25.80;96.70;;;;;;5103684;28;20044;-87
2023/07/23 06:45:06;;;;;;;10.70;5.40;;;25.90;96.70;;;;;;5088050;28;20040;-89
2023/07/23 06:47:38;;;;;;;8.70;4.88;;;26.10;96.70;;;;;;5091246;28;20101;-89
2023/07/23 06:50:07;;;;;;;7.65;4.65;;;26.20;96.70;;;;;;5091275;28;20047;-87
2023/07/23 06:52:35;;;;;;;13.48;4.68;;;26.30;96.70;;;;;;5091356;28;20072;-89
2023/07/23 06:55:03;;;;;;;7.80;5.10;;;26.30;96.70;;;;;;5107829;27;20048;-89
2023/07/23 06:57:31;;;;;;;7.20;5.00;;;26.20;96.70;;;;;;5115254;27;20123;-88
2023/07/23 07:00:00;;;;;;;8.73;4.47;;;26.30;96.70;;;;;;5107576;27;20126;-87
2023/07/23 07:02:28;;;;;;;7.97;4.70;;;26.40;96.70;;;;;;5107460;27;20109;-87
2023/07/23 07:04:57;;;;;;;9.05;4.30;;;26.50;96.70;;;;;;5089831;28;20134;-87
2023/07/23 07:07:26;;;;;;;10.98;4.78;;;26.50;96.70;;;;;;5091213;28;20072;-88
2023/07/23 07:09:54;;;;;;;10.40;5.20;;;26.60;96.70;;;;;;5095257;28;20068;-88
2023/07/23 07:12:23;;;;;;;8.52;4.72;;;26.60;96.70;;;;;;5091431;28;20044;-88
2023/07/23 07:14:51;;;;;;;8.52;4.97;;;26.60;96.70;;;;;;5099840;28;20071;-88
2023/07/23 07:17:20;;;;;;;8.18;4.82;;;26.70;96.70;;;;;;5109733;28;20043;-89
2023/07/23 07:19:48;;;;;;;7.00;4.28;;;26.70;96.70;;;;;;5096330;28;20040;-87
2023/07/23 07:22:17;;;;;;;8.98;4.60;;;26.80;96.70;;;;;;5115619;27;20048;-89
2023/07/23 07:24:45;;;;;;;7.72;4.47;;;26.80;96.70;;;;;;5116566;27;20066;-89
2023/07/23 07:27:15;;;;;;;8.23;4.60;;;26.90;96.70;;;;;;5090191;28;20076;-89
2023/07/23 07:29:44;;;;;;;7.03;4.28;;;27.00;96.70;;;;;;5087624;28;20140;-88
2023/07/23 07:32:12;;;;;;;8.85;4.55;;;27.00;96.70;;;;;;5109979;27;20066;-86
2023/07/23 07:34:40;;;;;;;8.48;4.90;;;27.00;96.70;;;;;;5115692;27;20048;-89
2023/07/23 07:37:08;;;;;;;8.75;4.53;;;27.10;96.70;;;;;;5110855;27;20044;-86
2023/07/23 07:39:38;;;;;;;9.05;5.30;;;27.20;96.70;;;;;;5099293;28;20128;-87
2023/07/23 07:42:06;;;;;;;6.55;4.70;;;27.30;96.70;;;;;;5099606;28;20063;-87
2023/07/23 07:44:34;;;;;;;12.38;5.35;;;27.30;96.70;;;;;;5090773;28;20393;-87
2023/07/23 07:47:03;;;;;;;7.85;4.85;;;27.40;96.70;;;;;;5090620;28;20502;-88
2023/07/23 07:49:31;;;;;;;7.40;4.30;;;27.50;96.70;;;;;;5096920;28;20068;-87
2023/07/23 07:51:59;;;;;;;9.75;4.15;;;27.60;96.70;;;;;;5108505;27;20047;-87
2023/07/23 07:54:28;;;;;;;8.20;4.63;;;27.70;96.70;;;;;;5101415;28;20115;-88
2023/07/23 07:56:58;;;;;;;8.07;4.32;;;27.80;96.70;;;;;;5098108;27;20075;-89
2023/07/23 07:59:26;;;;;;;6.95;4.38;;;27.80;96.70;;;;;;5091199;28;20043;-88
2023/07/23 08:01:55;;;;;;;8.73;4.80;;;27.80;96.70;;;;;;5111013;27;20055;-87
2023/07/23 08:04:24;;;;;;;6.38;4.05;;;28.00;96.70;;;;;;5092590;28;20040;-89
2023/07/23 08:06:53;;;;;;;10.02;4.35;;;28.10;96.70;;;;;;5107185;27;20093;-88
2023/07/23 08:09:24;;;;;;;6.05;4.32;;;28.10;96.70;;;;;;5090037;28;20071;-88
2023/07/23 08:11:53;;;;;;;7.97;4.22;;;28.20;96.70;;;;;;5108860;28;20051;-87
2023/07/23 08:14:23;;;;;;;10.43;4.00;;;28.30;96.70;;;;;;5093982;28;20054;-87
2023/07/23 08:16:54;;;;;;;7.90;3.75;;;28.40;96.70;;;;;;5099813;28;20044;-87
2023/07/23 08:19:22;;;;;;;5.30;3.40;;;28.50;96.70;;;;;;5105810;28;20142;-88
2023/07/23 08:21:51;;;;;;;6.50;3.97;;;28.50;96.70;;;;;;5092300;28;20062;-88
2023/07/23 08:24:20;;;;;;;7.88;3.58;;;28.50;96.70;;;;;;5099298;28;20047;-87
2023/07/23 08:26:50;;;;;;;10.25;3.83;;;28.60;96.70;;;;;;5094780;28;20054;-88
2023/07/23 08:29:24;;;;;;;6.03;3.70;;;28.70;96.70;;;;;;5109443;27;20567;-87
2023/07/23 08:31:55;;;;;;;6.15;3.70;;;28.70;96.70;;;;;;5098856;28;20043;-88
2023/07/23 08:34:25;;;;;;;6.13;3.50;;;28.70;96.70;;;;;;5097385;27;20048;-89
2023/07/23 08:36:54;;;;;;;5.80;3.28;;;28.70;96.70;;;;;;5089311;28;20052;-88
2023/07/23 08:39:23;;;;;;;8.98;3.70;;;28.80;96.70;;;;;;5094538;28;20134;-89
2023/07/23 08:42:13;;;;;;;5.43;3.50;;;28.80;96.70;;;;;;5101269;28;20501;-89
2023/07/23 08:47:38;;;;;;;5.85;3.40;;;28.80;96.70;;;;;;5134393;27;20482;-90
2023/07/23 08:50:07;;;;;;;4.88;3.10;;;28.90;96.70;;;;;;5087728;28;20058;-88
2023/07/23 08:52:37;;;;;;;8.77;3.83;;;28.90;96.70;;;;;;5070745;28;20427;-89
2023/07/23 08:55:07;;;;;;;6.30;3.17;;;28.90;96.70;;;;;;5094888;28;20040;-88
2023/07/23 08:57:36;;;;;;;5.18;3.35;;;29.10;96.70;;;;;;5091249;28;20398;-88
2023/07/23 09:00:38;;;;;;;6.05;3.08;;;29.20;96.70;;;;;;5092009;28;20047;-89
2023/07/23 09:03:10;;;;;;;6.75;3.65;;;29.20;96.70;;;;;;5078697;28;20067;-89
2023/07/23 09:05:39;;;;;;;9.10;3.42;;;29.40;96.70;;;;;;5097742;28;20074;-88
2023/07/23 09:08:08;;;;;;;8.45;3.65;;;29.50;96.70;;;;;;5088165;28;20050;-89
2023/07/23 09:10:36;;;;;;;8.20;3.83;;;29.50;96.70;;;;;;5104167;28;20580;-90
2023/07/23 09:13:10;;;;;;;6.53;4.03;;;29.50;96.70;;;;;;5093263;28;20048;-89
2023/07/23 09:15:39;;;;;;;7.95;3.58;;;29.50;96.70;;;;;;5082659;28;20048;-90
2023/07/23 09:18:09;;;;;;;4.97;3.88;;;29.60;96.70;;;;;;5091087;28;20074;-88
2023/07/23 09:20:38;;;;;;;12.23;4.45;;;29.70;96.70;;;;;;5100151;28;20093;-90
2023/07/23 09:23:07;;;;;;;9.65;3.60;;;29.70;96.70;;;;;;5094340;28;20043;-90
2023/07/23 09:25:36;;;;;;;9.50;3.53;;;29.70;96.70;;;;;;5099498;28;20127;-89
2023/07/23 09:28:05;;;;;;;6.28;3.95;;;29.80;96.70;;;;;;5084219;28;20047;-90
2023/07/23 09:30:33;;;;;;;7.78;4.30;;;29.90;96.70;;;;;;5104854;28;20040;-88
2023/07/23 09:33:07;;;;;;;7.75;3.85;;;29.90;96.70;;;;;;5085006;28;20094;-89
2023/07/23 09:35:39;;;;;;;7.78;4.10;;;30.00;96.70;;;;;;5069117;28;20040;-88
2023/07/23 09:38:10;;;;;;;7.35;3.58;;;30.00;96.70;;;;;;5102592;28;20071;-88
2023/07/23 09:40:40;;;;;;;5.68;3.58;;;30.00;96.70;;;;;;5087025;28;20051;-89
2023/07/23 09:43:09;;;;;;;8.38;4.55;;;30.10;96.70;;;;;;5091776;28;20554;-89
2023/07/23 09:45:39;;;;;;;6.28;3.22;;;30.10;96.70;;;;;;5086488;28;20097;-86
2023/07/23 09:48:08;;;;;;;6.25;3.90;;;30.20;96.70;;;;;;5086374;28;20047;-88
2023/07/23 09:50:46;;;;;;;7.43;4.53;;;30.30;96.70;;;;;;5103970;28;20063;-89
2023/07/23 09:53:15;;;;;;;8.88;4.20;;;30.20;96.70;;;;;;5095193;28;20126;-89
2023/07/23 09:55:46;;;;;;;6.90;4.05;;;30.30;96.70;;;;;;5121046;27;20114;-89
2023/07/23 09:58:17;;;;;;;6.40;4.15;;;30.30;96.70;;;;;;5058270;28;20040;-89
2023/07/23 10:00:46;;;;;;;5.95;4.20;;;30.50;96.70;;;;;;5065620;28;20075;-88
2023/07/23 10:03:15;;;;;;;7.70;4.65;;;30.50;96.70;;;;;;5083323;28;20040;-86
2023/07/23 10:05:46;;;;;;;8.57;4.53;;;30.60;96.70;;;;;;5065652;28;20044;-89
2023/07/23 10:08:15;;;;;;;8.48;4.45;;;30.60;96.70;;;;;;5072540;28;20116;-87
2023/07/23 10:10:43;;;;;;;8.85;4.45;;;30.70;96.70;;;;;;5063456;28;20497;-89
2023/07/23 10:13:11;;;;;;;8.45;4.82;;;30.80;96.70;;;;;;5082034;28;20045;-89
2023/07/23 10:15:40;;;;;;;8.65;4.82;;;30.90;96.70;;;;;;5091052;28;20122;-89
2023/07/23 10:18:10;;;;;;;6.93;4.38;;;30.90;96.70;;;;;;5056211;28;20139;-87
2023/07/23 10:20:39;;;;;;;9.02;4.47;;;31.00;96.70;;;;;;5088286;28;20074;-90
2023/07/23 10:23:09;;;;;;;9.65;4.97;;;31.00;96.70;;;;;;5072471;28;20032;-89
2023/07/23 10:25:37;;;;;;;10.13;4.78;;;31.10;96.70;;;;;;5080926;28;20059;-86
2023/07/23 10:28:10;;;;;;;10.57;5.03;;;31.20;96.70;;;;;;5077865;28;20062;-85
2023/07/23 10:30:38;;;;;;;8.65;5.00;;;31.20;96.70;;;;;;5054399;28;20044;-84
2023/07/23 10:33:28;;;;;;;8.05;5.60;;;31.40;96.70;;;;;;5072850;28;20143;-86
2023/07/23 10:36:04;;;;;;;9.13;5.65;;;31.50;96.70;;;;;;5075446;28;20497;-85
2023/07/23 10:38:35;;;;;;;10.20;5.32;;;31.50;96.70;;;;;;5089590;28;20168;-88
2023/07/23 10:41:04;;;;;;;9.07;5.95;;;31.60;96.70;;;;;;5089664;28;20048;-87
2023/07/23 10:43:43;;;;;;;8.80;5.60;;;31.60;96.70;;;;;;5053073;28;20044;-86
2023/07/23 10:46:13;;;;;;;10.93;5.47;;;31.70;96.70;;;;;;5073196;28;20060;-87
2023/07/23 10:48:49;;;;;;;11.15;5.80;;;31.80;96.70;;;;;;5055279;28;20053;-87
2023/07/23 10:51:19;;;;;;;7.85;5.18;;;31.90;96.70;;;;;;5087350;28;20047;-87
2023/07/23 10:53:56;;;;;;;9.23;5.50;;;31.90;96.70;;;;;;5062990;28;20141;-87
2023/07/23 10:56:27;;;;;;;7.90;5.32;;;31.90;96.70;;;;;;5080739;28;20091;-86
2023/07/23 10:58:58;;;;;;;7.63;5.15;;;31.90;96.70;;;;;;5075142;28;20044;-86
2023/07/23 11:01:28;;;;;;;7.60;5.07;;;31.90;96.70;;;;;;5076732;28;20640;-85
2023/07/23 11:03:57;;;;;;;9.98;5.63;;;32.10;96.70;;;;;;5069132;28;20076;-85
2023/07/23 11:06:29;;;;;;;9.52;6.05;;;32.10;96.70;;;;;;5070814;28;20058;-87
2023/07/23 11:09:04;;;;;;;10.20;5.63;;;32.20;96.70;;;;;;5050321;28;20053;-87
2023/07/23 11:11:36;;;;;;;10.52;5.72;;;32.40;96.70;;;;;;5087064;28;20070;-88
2023/07/23 11:14:17;;;;;;;7.20;4.82;;;32.50;96.70;;;;;;5062099;28;20047;-86
2023/07/23 11:16:46;;;;;;;7.70;5.10;;;32.50;96.70;;;;;;5080379;28;20501;-86
2023/07/23 11:19:17;;;;;;;6.55;4.30;;;32.60;96.70;;;;;;5091733;28;20043;-85
2023/07/23 11:21:48;;;;;;;8.23;5.10;;;32.70;96.70;;;;;;5080744;28;20043;-85
2023/07/23 11:24:18;;;;;;;8.93;5.28;;;32.70;96.70;;;;;;5061389;28;20041;-85
2023/07/23 11:26:47;;;;;;;7.25;5.07;;;32.80;96.70;;;;;;5088741;28;20087;-86
2023/07/23 11:29:15;;;;;;;7.28;5.20;;;32.80;96.70;;;;;;5071361;28;20116;-86
2023/07/23 11:31:44;;;;;;;8.25;6.20;;;32.90;96.70;;;;;;5088228;28;20127;-85
2023/07/23 11:34:13;;;;;;;8.30;6.07;;;33.00;96.70;;;;;;5087314;28;20079;-84
2023/07/23 11:36:42;;;;;;;9.50;7.50;;;33.00;96.70;;;;;;5052924;28;20169;-85
2023/07/23 11:39:11;;;;;;;8.75;6.57;;;33.00;96.70;;;;;;5062316;28;20051;-85
2023/07/23 11:41:42;;;;;;;8.82;6.35;;;33.00;96.70;;;;;;5084976;28;20048;-86
2023/07/23 11:44:11;;;;;;;9.07;6.45;;;33.10;96.70;;;;;;5078093;28;20053;-86
2023/07/23 11:46:41;;;;;;;7.35;5.72;;;33.20;96.70;;;;;;5051354;28;20090;-87
2023/07/23 11:49:10;;;;;;;6.80;6.10;;;33.10;96.70;;;;;;5084927;28;20056;-85
2023/07/23 11:51:39;;;;;;;8.18;5.68;;;33.00;96.70;;;;;;5088554;28;20122;-85
2023/07/23 11:54:09;;;;;;;6.43;5.40;;;33.10;96.70;;;;;;5077240;28;20040;-84
2023/07/23 11:56:39;;;;;;;8.57;6.53;;;33.40;96.70;;;;;;5067213;28;20048;-86
2023/07/23 11:59:10;;;;;;;7.60;5.85;;;33.30;96.70;;;;;;5053846;28;20150;-86
2023/07/23 12:01:39;;;;;;;7.18;5.50;;;33.50;96.70;;;;;;5061392;28;20071;-84
2023/07/23 12:04:09;;;;;;;7.93;4.93;;;33.50;96.70;;;;;;5061774;28;20049;-86
2023/07/23 12:06:38;;;;;;;8.50;5.60;;;33.50;96.70;;;;;;5076822;28;20071;-85
2023/07/23 12:09:07;;;;;;;7.50;5.68;;;33.60;96.70;;;;;;5087416;28;20044;-85
2023/07/23 12:11:38;;;;;;;8.25;5.97;;;33.60;96.70;;;;;;5079959;28;20393;-84
2023/07/23 12:14:09;;;;;;;8.30;6.07;;;33.70;96.70;;;;;;5086740;28;20417;-85
2023/07/23 12:16:38;;;;;;;6.75;5.72;;;33.70;96.70;;;;;;5076170;28;20144;-85
2023/07/23 12:19:08;;;;;;;8.02;5.20;;;33.50;96.70;;;;;;5087373;28;20039;-85
2023/07/23 12:21:38;;;;;;;8.95;6.35;;;33.70;96.70;;;;;;5066719;28;20044;-86
2023/07/23 12:24:17;;;;;;;7.78;6.00;;;33.80;96.70;;;;;;5069822;28;20048;-86
2023/07/23 12:26:47;;;;;;;8.95;6.63;;;33.80;96.70;;;;;;5052692;28;20044;-85
2023/07/23 12:29:18;;;;;;;10.20;6.13;;;33.80;96.70;;;;;;5068099;28;20040;-83
2023/07/23 12:31:48;;;;;;;8.77;6.15;;;33.80;96.70;;;;;;5064293;28;20040;-84
2023/07/23 12:34:19;;;;;;;8.38;5.68;;;33.80;96.70;;;;;;5084396;28;20044;-85
2023/07/23 12:36:48;;;;;;;6.70;5.28;;;33.70;96.70;;;;;;5066332;28;20055;-85
2023/07/23 12:39:18;;;;;;;9.02;6.47;;;33.80;96.70;;;;;;5077219;28;20044;-85
2023/07/23 12:41:46;;;;;;;9.57;6.22;;;33.70;96.70;;;;;;5052393;28;20139;-86
2023/07/23 12:44:15;;;;;;;8.20;6.15;;;33.80;96.70;;;;;;5072083;28;20048;-87
2023/07/23 12:46:44;;;;;;;10.52;7.47;;;33.80;96.70;;;;;;5069355;28;20082;-85
2023/07/23 12:49:12;;;;;;;9.57;6.72;;;33.80;96.70;;;;;;5052954;28;20426;-85
2023/07/23 12:51:40;;;;;;;10.50;7.65;;;34.00;96.70;;;;;;5059226;28;20048;-85
2023/07/23 12:54:11;;;;;;;11.13;7.63;;;34.00;96.70;;;;;;5073701;28;20123;-85
2023/07/23 12:56:40;;;;;;;8.02;6.78;;;34.00;96.70;;;;;;5083134;28;20043;-83
2023/07/23 12:59:09;;;;;;;9.10;7.03;;;34.00;96.70;;;;;;5076178;28;20051;-88